sensor_id;sensor_type;location;lat;lon;timestamp;pressure;altitude;pressure_sealevel;temperature;humidity
77171;BME280;66144;50.020;14.422;2023-05-10T00:01:53;98482.16;;;9.99;65.93
77171;BME280;66144;50.020;14.422;2023-05-10T00:04:19;98487.88;;;9.96;65.98
77171;BME280;66144;50.020;14.422;2023-05-10T00:06:44;98487.34;;;9.94;66.08
77171;BME280;66144;50.020;14.422;2023-05-10T00:09:10;98485.22;;;9.91;66.36
77171;BME280;66144;50.020;14.422;2023-05-10T00:11:35;98483.88;;;9.89;66.99
77171;BME280;66144;50.020;14.422;2023-05-10T00:14:01;98484.34;;;9.81;66.39
77171;BME280;66144;50.020;14.422;2023-05-10T00:16:26;98479.16;;;9.86;67.00
77171;BME280;66144;50.020;14.422;2023-05-10T00:18:51;98485.34;;;9.75;66.95
77171;BME280;66144;50.020;14.422;2023-05-10T00:21:17;98473.31;;;9.74;66.46
77171;BME280;66144;50.020;14.422;2023-05-10T00:23:42;98472.50;;;9.68;67.15
77171;BME280;66144;50.020;14.422;2023-05-10T00:26:07;98475.88;;;9.68;67.34
77171;BME280;66144;50.020;14.422;2023-05-10T00:28:33;98471.91;;;9.61;67.19
77171;BME280;66144;50.020;14.422;2023-05-10T00:30:58;98470.09;;;9.61;67.44
77171;BME280;66144;50.020;14.422;2023-05-10T00:33:23;98480.16;;;9.53;67.33
77171;BME280;66144;50.020;14.422;2023-05-10T00:35:49;98482.47;;;9.49;68.13
77171;BME280;66144;50.020;14.422;2023-05-10T00:38:14;98474.47;;;9.56;66.59
77171;BME280;66144;50.020;14.422;2023-05-10T00:40:40;98474.59;;;9.44;67.62
77171;BME280;66144;50.020;14.422;2023-05-10T00:43:05;98476.41;;;9.44;67.59
77171;BME280;66144;50.020;14.422;2023-05-10T00:45:32;98472.00;;;9.44;67.24
77171;BME280;66144;50.020;14.422;2023-05-10T00:48:00;98472.94;;;9.33;67.43
77171;BME280;66144;50.020;14.422;2023-05-10T00:50:27;98464.63;;;9.36;67.92
77171;BME280;66144;50.020;14.422;2023-05-10T00:52:53;98469.53;;;9.32;67.73
77171;BME280;66144;50.020;14.422;2023-05-10T00:55:19;98469.00;;;9.30;67.32
77171;BME280;66144;50.020;14.422;2023-05-10T00:57:44;98458.00;;;9.23;67.37
77171;BME280;66144;50.020;14.422;2023-05-10T01:00:10;98468.59;;;9.17;67.27
77171;BME280;66144;50.020;14.422;2023-05-10T01:02:36;98460.16;;;9.10;67.99
77171;BME280;66144;50.020;14.422;2023-05-10T01:05:03;98462.75;;;9.10;67.85
77171;BME280;66144;50.020;14.422;2023-05-10T01:07:29;98454.88;;;9.05;67.81
77171;BME280;66144;50.020;14.422;2023-05-10T01:09:56;98460.38;;;9.03;68.27
77171;BME280;66144;50.020;14.422;2023-05-10T01:12:21;98453.75;;;8.95;68.27
77171;BME280;66144;50.020;14.422;2023-05-10T01:14:47;98460.47;;;8.91;68.07
77171;BME280;66144;50.020;14.422;2023-05-10T01:17:13;98459.44;;;8.92;68.85
77171;BME280;66144;50.020;14.422;2023-05-10T01:19:39;98453.94;;;8.89;69.09
77171;BME280;66144;50.020;14.422;2023-05-10T01:22:22;98452.34;;;8.88;68.57
77171;BME280;66144;50.020;14.422;2023-05-10T01:33:48;98447.03;;;8.78;68.67
77171;BME280;66144;50.020;14.422;2023-05-10T01:36:44;98436.78;;;8.71;68.76
77171;BME280;66144;50.020;14.422;2023-05-10T01:39:28;98446.41;;;8.71;69.21
77171;BME280;66144;50.020;14.422;2023-05-10T01:42:08;98441.44;;;8.69;69.27
77171;BME280;66144;50.020;14.422;2023-05-10T01:47:46;98442.47;;;8.68;68.72
77171;BME280;66144;50.020;14.422;2023-05-10T01:50:18;98436.19;;;8.64;69.03
77171;BME280;66144;50.020;14.422;2023-05-10T01:52:49;98444.25;;;8.62;68.96
77171;BME280;66144;50.020;14.422;2023-05-10T01:55:18;98435.34;;;8.58;69.53
77171;BME280;66144;50.020;14.422;2023-05-10T01:57:46;98434.53;;;8.58;69.95
77171;BME280;66144;50.020;14.422;2023-05-10T02:00:14;98438.88;;;8.52;69.63
77171;BME280;66144;50.020;14.422;2023-05-10T02:02:42;98430.22;;;8.47;69.90
77171;BME280;66144;50.020;14.422;2023-05-10T02:05:12;98440.38;;;8.48;69.75
77171;BME280;66144;50.020;14.422;2023-05-10T02:07:39;98433.38;;;8.49;69.58
77171;BME280;66144;50.020;14.422;2023-05-10T02:10:06;98432.78;;;8.42;69.89
77171;BME280;66144;50.020;14.422;2023-05-10T02:12:35;98440.59;;;8.42;70.09
77171;BME280;66144;50.020;14.422;2023-05-10T02:15:03;98445.78;;;8.42;69.88
77171;BME280;66144;50.020;14.422;2023-05-10T02:17:31;98433.25;;;8.39;70.18
77171;BME280;66144;50.020;14.422;2023-05-10T02:19:59;98442.88;;;8.38;70.33
77171;BME280;66144;50.020;14.422;2023-05-10T02:22:26;98438.44;;;8.39;70.45
77171;BME280;66144;50.020;14.422;2023-05-10T02:24:54;98436.09;;;8.37;70.07
77171;BME280;66144;50.020;14.422;2023-05-10T02:27:22;98443.59;;;8.34;69.55
77171;BME280;66144;50.020;14.422;2023-05-10T02:29:49;98440.97;;;8.34;70.30
77171;BME280;66144;50.020;14.422;2023-05-10T02:32:16;98437.59;;;8.33;70.48
77171;BME280;66144;50.020;14.422;2023-05-10T02:34:43;98435.66;;;8.28;70.59
77171;BME280;66144;50.020;14.422;2023-05-10T02:37:12;98431.00;;;8.30;70.26
77171;BME280;66144;50.020;14.422;2023-05-10T02:39:38;98431.81;;;8.31;70.58
77171;BME280;66144;50.020;14.422;2023-05-10T02:42:11;98427.84;;;8.28;70.41
77171;BME280;66144;50.020;14.422;2023-05-10T02:44:41;98432.47;;;8.21;70.53
77171;BME280;66144;50.020;14.422;2023-05-10T02:47:07;98427.25;;;8.21;71.13
77171;BME280;66144;50.020;14.422;2023-05-10T02:49:32;98429.31;;;8.19;71.07
77171;BME280;66144;50.020;14.422;2023-05-10T02:52:00;98430.25;;;8.13;70.99
77171;BME280;66144;50.020;14.422;2023-05-10T02:54:31;98428.66;;;8.12;70.69
77171;BME280;66144;50.020;14.422;2023-05-10T02:56:59;98433.09;;;8.12;71.01
77171;BME280;66144;50.020;14.422;2023-05-10T02:59:26;98427.88;;;8.12;70.58
77171;BME280;66144;50.020;14.422;2023-05-10T03:01:51;98424.44;;;8.06;70.67
77171;BME280;66144;50.020;14.422;2023-05-10T03:04:16;98424.44;;;8.06;70.60
77171;BME280;66144;50.020;14.422;2023-05-10T03:06:42;98414.56;;;8.08;70.98
77171;BME280;66144;50.020;14.422;2023-05-10T03:09:08;98420.25;;;8.05;70.68
77171;BME280;66144;50.020;14.422;2023-05-10T03:16:59;98416.63;;;8.06;71.11
77171;BME280;66144;50.020;14.422;2023-05-10T03:19:30;98418.13;;;8.02;71.27
77171;BME280;66144;50.020;14.422;2023-05-10T03:21:59;98420.19;;;8.00;71.43
77171;BME280;66144;50.020;14.422;2023-05-10T03:24:29;98420.19;;;8.00;70.46
77171;BME280;66144;50.020;14.422;2023-05-10T03:26:56;98429.56;;;8.01;70.33
77171;BME280;66144;50.020;14.422;2023-05-10T03:29:25;98433.09;;;7.95;71.03
77171;BME280;66144;50.020;14.422;2023-05-10T03:31:51;98429.38;;;7.91;71.12
77171;BME280;66144;50.020;14.422;2023-05-10T03:34:16;98430.34;;;7.85;71.49
77171;BME280;66144;50.020;14.422;2023-05-10T03:36:42;98429.81;;;7.83;71.67
77171;BME280;66144;50.020;14.422;2023-05-10T03:39:07;98440.25;;;7.71;71.50
77171;BME280;66144;50.020;14.422;2023-05-10T03:41:33;98440.34;;;7.76;71.22
77171;BME280;66144;50.020;14.422;2023-05-10T03:43:59;98435.94;;;7.77;71.93
77171;BME280;66144;50.020;14.422;2023-05-10T03:46:24;98440.81;;;7.73;71.81
77171;BME280;66144;50.020;14.422;2023-05-10T03:48:50;98438.44;;;7.72;72.05
77171;BME280;66144;50.020;14.422;2023-05-10T03:51:15;98437.34;;;7.68;71.98
77171;BME280;66144;50.020;14.422;2023-05-10T03:53:40;98443.94;;;7.58;72.28
77171;BME280;66144;50.020;14.422;2023-05-10T03:56:06;98440.78;;;7.56;72.45
77171;BME280;66144;50.020;14.422;2023-05-10T03:58:31;98445.53;;;7.59;72.05
77171;BME280;66144;50.020;14.422;2023-05-10T04:00:56;98443.50;;;7.61;71.91
77171;BME280;66144;50.020;14.422;2023-05-10T04:03:22;98441.25;;;7.53;72.95
77171;BME280;66144;50.020;14.422;2023-05-10T04:05:47;98447.09;;;7.60;72.04
77171;BME280;66144;50.020;14.422;2023-05-10T04:08:13;98435.78;;;7.67;72.08
77171;BME280;66144;50.020;14.422;2023-05-10T04:10:39;98435.78;;;7.67;72.47
77171;BME280;66144;50.020;14.422;2023-05-10T04:13:05;98430.88;;;7.70;72.61
77171;BME280;66144;50.020;14.422;2023-05-10T04:15:30;98439.00;;;7.74;72.22
77171;BME280;66144;50.020;14.422;2023-05-10T04:17:56;98440.81;;;7.73;72.15
77171;BME280;66144;50.020;14.422;2023-05-10T04:20:21;98440.09;;;7.78;72.35
77171;BME280;66144;50.020;14.422;2023-05-10T04:22:46;98443.59;;;7.83;71.54
77171;BME280;66144;50.020;14.422;2023-05-10T04:25:12;98435.78;;;7.83;72.42
77171;BME280;66144;50.020;14.422;2023-05-10T04:27:37;98437.69;;;7.88;71.82
77171;BME280;66144;50.020;14.422;2023-05-10T04:30:03;98424.69;;;7.88;72.68
77171;BME280;66144;50.020;14.422;2023-05-10T04:32:28;98428.84;;;7.89;73.18
77171;BME280;66144;50.020;14.422;2023-05-10T04:34:54;98425.78;;;7.92;73.13
77171;BME280;66144;50.020;14.422;2023-05-10T04:37:19;98431.13;;;8.02;72.60
77171;BME280;66144;50.020;14.422;2023-05-10T04:39:46;98425.53;;;8.10;72.89
77171;BME280;66144;50.020;14.422;2023-05-10T04:42:11;98426.28;;;8.27;71.66
77171;BME280;66144;50.020;14.422;2023-05-10T04:44:37;98436.56;;;8.34;72.31
77171;BME280;66144;50.020;14.422;2023-05-10T04:47:02;98425.44;;;8.39;72.51
77171;BME280;66144;50.020;14.422;2023-05-10T04:49:29;98419.81;;;8.47;72.41
77171;BME280;66144;50.020;14.422;2023-05-10T04:51:55;98420.44;;;8.54;72.26
77171;BME280;66144;50.020;14.422;2023-05-10T04:54:20;98425.00;;;8.63;72.98
77171;BME280;66144;50.020;14.422;2023-05-10T04:56:45;98421.31;;;8.81;72.68
77171;BME280;66144;50.020;14.422;2023-05-10T04:59:11;98418.69;;;9.03;72.77
77171;BME280;66144;50.020;14.422;2023-05-10T05:01:36;98417.78;;;9.46;71.44
77171;BME280;66144;50.020;14.422;2023-05-10T05:04:01;98414.78;;;10.28;68.39
77171;BME280;66144;50.020;14.422;2023-05-10T05:06:27;98419.81;;;11.02;65.90
77171;BME280;66144;50.020;14.422;2023-05-10T05:08:52;98409.47;;;11.73;64.01
77171;BME280;66144;50.020;14.422;2023-05-10T05:11:18;98407.03;;;12.43;61.47
77171;BME280;66144;50.020;14.422;2023-05-10T05:13:43;98414.91;;;13.07;60.82
77171;BME280;66144;50.020;14.422;2023-05-10T05:16:09;98406.75;;;13.58;59.36
77171;BME280;66144;50.020;14.422;2023-05-10T05:18:35;98406.53;;;14.12;57.03
77171;BME280;66144;50.020;14.422;2023-05-10T05:21:00;98418.81;;;14.46;56.24
77171;BME280;66144;50.020;14.422;2023-05-10T05:23:26;98420.22;;;14.86;55.02
77171;BME280;66144;50.020;14.422;2023-05-10T05:25:52;98418.53;;;15.33;54.15
77171;BME280;66144;50.020;14.422;2023-05-10T05:28:18;98409.56;;;15.71;53.19
77171;BME280;66144;50.020;14.422;2023-05-10T05:30:43;98411.22;;;16.13;52.35
77171;BME280;66144;50.020;14.422;2023-05-10T05:33:09;98405.50;;;16.52;51.49
77171;BME280;66144;50.020;14.422;2023-05-10T05:35:34;98413.00;;;17.00;52.69
77171;BME280;66144;50.020;14.422;2023-05-10T05:38:00;98409.03;;;17.25;49.94
77171;BME280;66144;50.020;14.422;2023-05-10T05:40:26;98410.34;;;17.72;47.92
77171;BME280;66144;50.020;14.422;2023-05-10T05:42:51;98408.00;;;18.24;46.78
77171;BME280;66144;50.020;14.422;2023-05-10T05:45:16;98405.78;;;18.57;46.33
77171;BME280;66144;50.020;14.422;2023-05-10T05:47:42;98401.38;;;19.09;45.67
77171;BME280;66144;50.020;14.422;2023-05-10T05:50:07;98404.22;;;19.39;44.47
77171;BME280;66144;50.020;14.422;2023-05-10T05:52:33;98407.16;;;19.63;43.53
77171;BME280;66144;50.020;14.422;2023-05-10T05:54:58;98410.81;;;20.05;44.08
77171;BME280;66144;50.020;14.422;2023-05-10T05:57:24;98409.16;;;20.47;41.84
77171;BME280;66144;50.020;14.422;2023-05-10T05:59:49;98405.53;;;20.81;40.11
77171;BME280;66144;50.020;14.422;2023-05-10T06:02:14;98402.13;;;21.01;38.77
77171;BME280;66144;50.020;14.422;2023-05-10T06:04:40;98410.50;;;21.12;37.95
77171;BME280;66144;50.020;14.422;2023-05-10T06:07:05;98409.34;;;21.43;40.91
77171;BME280;66144;50.020;14.422;2023-05-10T06:09:30;98411.53;;;21.20;37.27
77171;BME280;66144;50.020;14.422;2023-05-10T06:11:56;98403.72;;;20.73;40.99
77171;BME280;66144;50.020;14.422;2023-05-10T06:14:22;98407.69;;;20.58;38.85
77171;BME280;66144;50.020;14.422;2023-05-10T06:16:47;98410.59;;;20.65;38.94
77171;BME280;66144;50.020;14.422;2023-05-10T06:19:13;98405.91;;;21.21;38.41
77171;BME280;66144;50.020;14.422;2023-05-10T06:21:38;98405.38;;;21.49;38.50
77171;BME280;66144;50.020;14.422;2023-05-10T06:24:05;98408.22;;;21.44;38.25
77171;BME280;66144;50.020;14.422;2023-05-10T06:26:31;98404.25;;;21.08;38.44
77171;BME280;66144;50.020;14.422;2023-05-10T06:28:57;98402.41;;;20.58;38.10
77171;BME280;66144;50.020;14.422;2023-05-10T06:31:22;98413.03;;;20.50;39.13
77171;BME280;66144;50.020;14.422;2023-05-10T06:33:47;98414.28;;;20.52;42.52
77171;BME280;66144;50.020;14.422;2023-05-10T06:36:13;98413.44;;;20.60;40.77
77171;BME280;66144;50.020;14.422;2023-05-10T06:38:38;98404.88;;;20.84;38.21
77171;BME280;66144;50.020;14.422;2023-05-10T06:41:04;98405.06;;;21.29;39.04
77171;BME280;66144;50.020;14.422;2023-05-10T06:43:29;98402.56;;;21.66;36.37
77171;BME280;66144;50.020;14.422;2023-05-10T06:45:55;98400.09;;;21.61;36.08
77171;BME280;66144;50.020;14.422;2023-05-10T06:48:20;98403.97;;;21.96;36.35
77171;BME280;66144;50.020;14.422;2023-05-10T06:50:45;98394.09;;;22.30;36.50
77171;BME280;66144;50.020;14.422;2023-05-10T06:53:11;98397.81;;;22.17;34.28
77171;BME280;66144;50.020;14.422;2023-05-10T06:55:37;98400.59;;;22.93;34.94
77171;BME280;66144;50.020;14.422;2023-05-10T06:58:02;98401.44;;;23.22;33.72
77171;BME280;66144;50.020;14.422;2023-05-10T07:00:28;98403.88;;;23.83;34.27
77171;BME280;66144;50.020;14.422;2023-05-10T07:02:53;98402.22;;;23.78;32.13
77171;BME280;66144;50.020;14.422;2023-05-10T07:05:18;98400.41;;;23.66;32.22
77171;BME280;66144;50.020;14.422;2023-05-10T07:07:44;98400.97;;;24.19;32.88
77171;BME280;66144;50.020;14.422;2023-05-10T07:10:10;98407.78;;;24.48;32.59
77171;BME280;66144;50.020;14.422;2023-05-10T07:12:35;98402.34;;;24.60;31.98
77171;BME280;66144;50.020;14.422;2023-05-10T07:15:01;98386.56;;;25.25;30.33
77171;BME280;66144;50.020;14.422;2023-05-10T07:17:26;98397.28;;;25.25;30.76
77171;BME280;66144;50.020;14.422;2023-05-10T07:19:51;98393.38;;;26.03;30.03
77171;BME280;66144;50.020;14.422;2023-05-10T07:22:17;98393.16;;;25.89;30.28
77171;BME280;66144;50.020;14.422;2023-05-10T07:24:43;98399.31;;;26.35;30.53
77171;BME280;66144;50.020;14.422;2023-05-10T07:27:08;98396.34;;;25.98;29.15
77171;BME280;66144;50.020;14.422;2023-05-10T07:29:34;98399.81;;;26.22;29.13
77171;BME280;66144;50.020;14.422;2023-05-10T07:31:59;98401.13;;;26.54;29.55
77171;BME280;66144;50.020;14.422;2023-05-10T07:34:25;98401.38;;;26.72;29.43
77171;BME280;66144;50.020;14.422;2023-05-10T07:36:51;98400.59;;;26.71;28.69
77171;BME280;66144;50.020;14.422;2023-05-10T07:39:17;98399.09;;;27.30;28.29
77171;BME280;66144;50.020;14.422;2023-05-10T07:41:42;98400.59;;;27.28;27.36
77171;BME280;66144;50.020;14.422;2023-05-10T07:44:07;98397.66;;;27.73;27.21
77171;BME280;66144;50.020;14.422;2023-05-10T07:46:33;98398.00;;;27.05;27.32
77171;BME280;66144;50.020;14.422;2023-05-10T07:48:58;98389.22;;;27.38;28.02
77171;BME280;66144;50.020;14.422;2023-05-10T07:51:23;98404.38;;;26.21;28.38
77171;BME280;66144;50.020;14.422;2023-05-10T07:53:49;98400.03;;;26.32;27.65
77171;BME280;66144;50.020;14.422;2023-05-10T07:56:25;98397.88;;;27.24;26.73
77171;BME280;66144;50.020;14.422;2023-05-10T07:58:53;98393.06;;;27.70;27.38
77171;BME280;66144;50.020;14.422;2023-05-10T08:01:19;98397.25;;;27.68;27.20
77171;BME280;66144;50.020;14.422;2023-05-10T08:03:44;98388.84;;;27.73;27.14
77171;BME280;66144;50.020;14.422;2023-05-10T08:06:10;98390.19;;;28.37;26.12
77171;BME280;66144;50.020;14.422;2023-05-10T08:08:35;98393.97;;;28.80;26.76
77171;BME280;66144;50.020;14.422;2023-05-10T08:11:01;98394.16;;;27.66;26.09
77171;BME280;66144;50.020;14.422;2023-05-10T08:13:26;98397.56;;;28.03;26.17
77171;BME280;66144;50.020;14.422;2023-05-10T08:15:52;98400.63;;;28.02;25.90
77171;BME280;66144;50.020;14.422;2023-05-10T08:18:18;98401.50;;;28.16;26.28
77171;BME280;66144;50.020;14.422;2023-05-10T08:20:44;98398.03;;;28.60;25.70
77171;BME280;66144;50.020;14.422;2023-05-10T08:23:09;98403.78;;;29.24;25.21
77171;BME280;66144;50.020;14.422;2023-05-10T08:25:35;98411.16;;;28.72;25.63
77171;BME280;66144;50.020;14.422;2023-05-10T08:28:00;98402.94;;;27.63;26.35
77171;BME280;66144;50.020;14.422;2023-05-10T08:30:25;98409.72;;;27.23;26.80
77171;BME280;66144;50.020;14.422;2023-05-10T08:32:51;98400.09;;;28.30;25.85
77171;BME280;66144;50.020;14.422;2023-05-10T08:35:16;98405.22;;;29.04;25.49
77171;BME280;66144;50.020;14.422;2023-05-10T08:37:41;98401.03;;;29.17;25.54
77171;BME280;66144;50.020;14.422;2023-05-10T08:40:08;98404.03;;;28.39;25.69
77171;BME280;66144;50.020;14.422;2023-05-10T08:42:39;98407.72;;;28.21;25.55
77171;BME280;66144;50.020;14.422;2023-05-10T08:45:07;98410.34;;;28.17;27.54
77171;BME280;66144;50.020;14.422;2023-05-10T08:47:35;98412.53;;;28.48;26.15
77171;BME280;66144;50.020;14.422;2023-05-10T08:50:03;98412.50;;;29.00;26.96
77171;BME280;66144;50.020;14.422;2023-05-10T08:52:30;98410.72;;;28.63;26.02
77171;BME280;66144;50.020;14.422;2023-05-10T08:54:56;98410.44;;;28.79;26.49
77171;BME280;66144;50.020;14.422;2023-05-10T08:57:21;98402.88;;;28.40;26.15
77171;BME280;66144;50.020;14.422;2023-05-10T08:59:47;98406.84;;;28.13;26.71
77171;BME280;66144;50.020;14.422;2023-05-10T09:02:13;98406.94;;;27.46;27.48
77171;BME280;66144;50.020;14.422;2023-05-10T09:04:39;98403.44;;;27.75;27.18
77171;BME280;66144;50.020;14.422;2023-05-10T09:07:04;98397.44;;;27.89;26.75
77171;BME280;66144;50.020;14.422;2023-05-10T09:09:30;98397.28;;;28.15;26.67
77171;BME280;66144;50.020;14.422;2023-05-10T09:11:56;98403.50;;;27.82;27.58
77171;BME280;66144;50.020;14.422;2023-05-10T09:14:23;98397.19;;;26.25;29.07
77171;BME280;66144;50.020;14.422;2023-05-10T09:16:50;98398.97;;;25.72;29.84
77171;BME280;66144;50.020;14.422;2023-05-10T09:19:15;98404.44;;;25.40;30.28
77171;BME280;66144;50.020;14.422;2023-05-10T09:21:41;98414.91;;;24.75;31.16
77171;BME280;66144;50.020;14.422;2023-05-10T09:24:07;98409.50;;;25.07;32.04
77171;BME280;66144;50.020;14.422;2023-05-10T09:26:33;98401.47;;;25.07;30.55
77171;BME280;66144;50.020;14.422;2023-05-10T09:29:00;98404.66;;;24.77;31.53
77171;BME280;66144;50.020;14.422;2023-05-10T09:31:50;98397.91;;;25.19;30.93
77171;BME280;66144;50.020;14.422;2023-05-10T09:34:21;98406.97;;;24.63;31.55
77171;BME280;66144;50.020;14.422;2023-05-10T09:36:55;98411.22;;;24.49;31.31
77171;BME280;66144;50.020;14.422;2023-05-10T09:39:30;98409.56;;;23.97;32.61
77171;BME280;66144;50.020;14.422;2023-05-10T09:41:55;98402.88;;;23.19;33.74
77171;BME280;66144;50.020;14.422;2023-05-10T09:44:21;98399.13;;;23.76;34.14
77171;BME280;66144;50.020;14.422;2023-05-10T09:46:50;98398.75;;;22.82;33.51
77171;BME280;66144;50.020;14.422;2023-05-10T09:49:18;98398.78;;;23.09;33.51
77171;BME280;66144;50.020;14.422;2023-05-10T09:51:43;98393.66;;;23.17;34.35
77171;BME280;66144;50.020;14.422;2023-05-10T09:54:14;98391.22;;;23.12;33.71
77171;BME280;66144;50.020;14.422;2023-05-10T09:56:40;98383.22;;;23.24;33.77
77171;BME280;66144;50.020;14.422;2023-05-10T09:59:10;98388.72;;;23.31;33.63
77171;BME280;66144;50.020;14.422;2023-05-10T10:01:36;98399.59;;;23.38;33.92
77171;BME280;66144;50.020;14.422;2023-05-10T10:04:06;98397.34;;;23.12;33.88
77171;BME280;66144;50.020;14.422;2023-05-10T10:06:41;98394.59;;;22.96;34.51
77171;BME280;66144;50.020;14.422;2023-05-10T10:09:07;98396.09;;;23.22;35.06
77171;BME280;66144;50.020;14.422;2023-05-10T10:11:37;98401.81;;;22.96;35.00
77171;BME280;66144;50.020;14.422;2023-05-10T10:14:04;98394.81;;;23.03;34.58
77171;BME280;66144;50.020;14.422;2023-05-10T10:16:30;98400.94;;;22.55;35.13
77171;BME280;66144;50.020;14.422;2023-05-10T10:18:57;98390.41;;;22.83;34.86
77171;BME280;66144;50.020;14.422;2023-05-10T10:21:23;98392.22;;;23.19;35.68
77171;BME280;66144;50.020;14.422;2023-05-10T10:23:48;98389.81;;;23.42;34.41
77171;BME280;66144;50.020;14.422;2023-05-10T10:26:14;98382.22;;;23.56;37.05
77171;BME280;66144;50.020;14.422;2023-05-10T10:34:46;98382.59;;;23.86;34.40
77171;BME280;66144;50.020;14.422;2023-05-10T10:37:12;98378.91;;;23.91;32.73
77171;BME280;66144;50.020;14.422;2023-05-10T10:39:37;98383.09;;;23.48;33.38
77171;BME280;66144;50.020;14.422;2023-05-10T10:42:03;98375.47;;;23.90;32.81
77171;BME280;66144;50.020;14.422;2023-05-10T10:47:05;98372.38;;;23.88;32.80
77171;BME280;66144;50.020;14.422;2023-05-10T10:52:22;98371.28;;;24.21;32.50
77171;BME280;66144;50.020;14.422;2023-05-10T10:57:20;98378.47;;;23.73;32.89
77171;BME280;66144;50.020;14.422;2023-05-10T10:59:48;98374.69;;;23.90;32.75
77171;BME280;66144;50.020;14.422;2023-05-10T11:04:59;98357.69;;;24.26;33.43
77171;BME280;66144;50.020;14.422;2023-05-10T11:07:26;98346.63;;;24.11;33.31
77171;BME280;66144;50.020;14.422;2023-05-10T11:09:51;98357.72;;;24.45;32.75
77171;BME280;66144;50.020;14.422;2023-05-10T11:12:16;98354.22;;;24.41;32.26
77171;BME280;66144;50.020;14.422;2023-05-10T11:14:42;98354.06;;;24.34;33.36
77171;BME280;66144;50.020;14.422;2023-05-10T11:17:40;98349.91;;;24.52;33.30
77171;BME280;66144;50.020;14.422;2023-05-10T11:20:13;98355.06;;;24.45;32.81
77171;BME280;66144;50.020;14.422;2023-05-10T11:22:49;98350.50;;;24.45;31.96
77171;BME280;66144;50.020;14.422;2023-05-10T11:25:18;98345.16;;;24.45;32.74
77171;BME280;66144;50.020;14.422;2023-05-10T11:27:44;98349.56;;;24.54;31.85
77171;BME280;66144;50.020;14.422;2023-05-10T11:30:11;98363.72;;;24.73;31.63
77171;BME280;66144;50.020;14.422;2023-05-10T11:32:40;98349.13;;;24.52;32.65
77171;BME280;66144;50.020;14.422;2023-05-10T11:35:09;98352.09;;;24.66;32.27
77171;BME280;66144;50.020;14.422;2023-05-10T11:37:35;98361.75;;;24.70;31.63
77171;BME280;66144;50.020;14.422;2023-05-10T11:40:00;98354.22;;;24.76;32.07
77171;BME280;66144;50.020;14.422;2023-05-10T11:42:28;98341.69;;;24.96;31.23
77171;BME280;66144;50.020;14.422;2023-05-10T11:44:54;98349.00;;;25.37;31.65
77171;BME280;66144;50.020;14.422;2023-05-10T11:47:19;98344.16;;;24.69;32.04
77171;BME280;66144;50.020;14.422;2023-05-10T11:49:45;98346.53;;;24.55;31.76
77171;BME280;66144;50.020;14.422;2023-05-10T11:52:11;98351.34;;;24.85;31.24
77171;BME280;66144;50.020;14.422;2023-05-10T11:54:36;98351.22;;;24.77;31.91
77171;BME280;66144;50.020;14.422;2023-05-10T11:57:03;98350.56;;;24.84;31.72
77171;BME280;66144;50.020;14.422;2023-05-10T11:59:28;98364.34;;;24.86;31.70
77171;BME280;66144;50.020;14.422;2023-05-10T12:01:54;98356.09;;;24.56;32.04
77171;BME280;66144;50.020;14.422;2023-05-10T12:04:19;98356.78;;;24.53;32.57
77171;BME280;66144;50.020;14.422;2023-05-10T12:06:45;98361.25;;;24.49;32.40
77171;BME280;66144;50.020;14.422;2023-05-10T12:09:12;98354.13;;;24.53;32.05
77171;BME280;66144;50.020;14.422;2023-05-10T12:11:39;98359.84;;;24.36;32.56
77171;BME280;66144;50.020;14.422;2023-05-10T12:14:05;98364.28;;;24.48;32.44
77171;BME280;66144;50.020;14.422;2023-05-10T12:16:32;98372.81;;;24.22;32.83
77171;BME280;66144;50.020;14.422;2023-05-10T12:18:59;98372.47;;;23.92;33.36
77171;BME280;66144;50.020;14.422;2023-05-10T12:21:25;98370.47;;;23.89;33.46
77171;BME280;66144;50.020;14.422;2023-05-10T12:23:53;98373.34;;;23.52;33.53
77171;BME280;66144;50.020;14.422;2023-05-10T12:26:22;98376.22;;;23.19;34.44
77171;BME280;66144;50.020;14.422;2023-05-10T12:28:48;98371.50;;;23.00;34.63
77171;BME280;66144;50.020;14.422;2023-05-10T12:31:13;98377.47;;;23.09;34.72
77171;BME280;66144;50.020;14.422;2023-05-10T12:33:43;98376.84;;;23.00;34.94
77171;BME280;66144;50.020;14.422;2023-05-10T12:36:09;98373.00;;;22.86;35.33
77171;BME280;66144;50.020;14.422;2023-05-10T12:38:43;98372.84;;;22.94;34.43
77171;BME280;66144;50.020;14.422;2023-05-10T12:41:10;98370.00;;;22.87;35.24
77171;BME280;66144;50.020;14.422;2023-05-10T12:43:36;98380.09;;;22.82;35.99
77171;BME280;66144;50.020;14.422;2023-05-10T12:46:09;98376.75;;;22.36;36.30
77171;BME280;66144;50.020;14.422;2023-05-10T12:48:36;98371.66;;;22.67;36.34
77171;BME280;66144;50.020;14.422;2023-05-10T12:51:03;98378.09;;;22.54;36.23
77171;BME280;66144;50.020;14.422;2023-05-10T12:53:29;98369.09;;;22.71;35.93
77171;BME280;66144;50.020;14.422;2023-05-10T12:55:55;98373.78;;;22.62;36.04
77171;BME280;66144;50.020;14.422;2023-05-10T12:58:21;98375.22;;;22.84;36.87
77171;BME280;66144;50.020;14.422;2023-05-10T13:00:46;98377.66;;;22.52;36.80
77171;BME280;66144;50.020;14.422;2023-05-10T13:03:12;98373.56;;;22.67;36.45
77171;BME280;66144;50.020;14.422;2023-05-10T13:05:37;98373.09;;;22.53;36.84
77171;BME280;66144;50.020;14.422;2023-05-10T13:08:03;98382.53;;;22.62;38.13
77171;BME280;66144;50.020;14.422;2023-05-10T13:10:30;98382.88;;;22.61;37.21
77171;BME280;66144;50.020;14.422;2023-05-10T13:12:56;98381.31;;;22.60;37.22
77171;BME280;66144;50.020;14.422;2023-05-10T13:15:22;98377.44;;;22.69;37.60
77171;BME280;66144;50.020;14.422;2023-05-10T13:17:47;98370.22;;;22.70;37.22
77171;BME280;66144;50.020;14.422;2023-05-10T13:20:13;98377.44;;;22.45;37.34
77171;BME280;66144;50.020;14.422;2023-05-10T13:22:38;98369.34;;;22.42;37.04
77171;BME280;66144;50.020;14.422;2023-05-10T13:25:03;98370.22;;;22.70;37.50